Etusivu
METAR-TAF:

METAR-TAF

Lentoasemat :

Saginaw County H.W. Browne Airport

Saginaw, Michigan, Yhdysvallat

Leveyspiiri: 43-26-00N, Pituuspiiri: 083-51-45W, korkeus merenpinnasta: 183 m

Tämänhetkinen sää

Tämä raportti tehtiin 16 minuuttia sitten, kello 13.16 UTC
Tuuli 11 kn lännestä/lounaasta puuskistuen 15 kn:hen
Lämpötila 20°C
Kosteus 78%
Ilmanpaine 1009 hPa
Näkyvyys: 16.1 km
Hajonneita pilviä 1700 ft:n korkeudessa

METAR: KHYX 251316Z AUTO 25011G15KT 10SM BKN017 20/16 A2979 RMK AO2

Aika: 09:32 (13:32 UTC)


TAF: puuttuu

Säähavainnot ja -ennusteet yli 4000 lentoasemalta (METAR- ja TAF-raportit).

Käytössä olevat sääasemat on merkitty karttaan keltaisilla ja punaisilla pisteillä.

Aseta hiiri pisteen päälle nähdäksesi sääaseman nimen.

Klikkaa sitten nähdäksesi säähavainnot ja -ennusteet.

Kartan vaihtaminen: klikkaa mustalla rastilla varustettuja vihreitä pisteitä, niin voit zoomata sisään; viivalla varustettua vihreää pistettä, niin voit zoomata ulos tai vihreitä nuolia, niin pääset viereisille kartoille.


METAR-TAF: